Why aren't you flying today?
Weather

CYYJ 230200Z 07004KT 30SM FEW017 BKN036 BKN150 07/05 A2956 RMK SC2SC4AC1 SLP011

 

TAF CYYJ 221738Z 2218/2318 VRB03KT P6SM -SHRA SCT040 OVC080 TEMPO 2218/2222 5SM -SHRA BR SCT015 OVC040 FM222200 12010KT P6SM BKN030 BKN140 TEMPO 2222/2305 BKN020 OVC140 FM230500 VRB03KT P6SM FEW020 SCT140 FM230900 30008KT P6SM FEW005 SCT200 PROB30 2309/2316 1SM BR BKN005 RMK NXT FCST BY 230000Z


Webcam

More?


Google Map

Bigger Map?